sensor_id;sensor_type;location;lat;lon;timestamp;P1;durP1;ratioP1;P2;durP2;ratioP2
35488;SDS011;21602;55.670;37.578;2023-12-29T00:02:22;2.70;;;1.48;;
35488;SDS011;21602;55.670;37.578;2023-12-29T00:04:48;2.35;;;1.90;;
35488;SDS011;21602;55.670;37.578;2023-12-29T00:07:15;1.60;;;1.50;;
35488;SDS011;21602;55.670;37.578;2023-12-29T00:09:41;2.00;;;1.70;;
35488;SDS011;21602;55.670;37.578;2023-12-29T00:12:07;2.30;;;1.90;;
35488;SDS011;21602;55.670;37.578;2023-12-29T00:14:36;2.80;;;1.70;;
35488;SDS011;21602;55.670;37.578;2023-12-29T00:17:07;2.05;;;1.77;;
35488;SDS011;21602;55.670;37.578;2023-12-29T00:19:33;2.67;;;2.00;;
35488;SDS011;21602;55.670;37.578;2023-12-29T00:21:59;2.15;;;1.63;;
35488;SDS011;21602;55.670;37.578;2023-12-29T00:24:27;2.30;;;1.73;;
35488;SDS011;21602;55.670;37.578;2023-12-29T00:26:53;2.72;;;2.15;;
35488;SDS011;21602;55.670;37.578;2023-12-29T00:29:19;2.67;;;1.77;;
35488;SDS011;21602;55.670;37.578;2023-12-29T00:31:45;2.35;;;1.73;;
35488;SDS011;21602;55.670;37.578;2023-12-29T00:34:11;1.75;;;1.40;;
35488;SDS011;21602;55.670;37.578;2023-12-29T00:36:37;2.33;;;1.70;;
35488;SDS011;21602;55.670;37.578;2023-12-29T00:39:03;2.42;;;1.65;;
35488;SDS011;21602;55.670;37.578;2023-12-29T00:41:28;3.00;;;1.85;;
35488;SDS011;21602;55.670;37.578;2023-12-29T00:43:54;2.70;;;1.88;;
35488;SDS011;21602;55.670;37.578;2023-12-29T00:46:20;2.05;;;1.85;;
35488;SDS011;21602;55.670;37.578;2023-12-29T00:48:46;2.30;;;1.80;;
35488;SDS011;21602;55.670;37.578;2023-12-29T00:51:12;2.38;;;1.80;;
35488;SDS011;21602;55.670;37.578;2023-12-29T00:53:38;3.38;;;2.38;;
35488;SDS011;21602;55.670;37.578;2023-12-29T00:56:13;3.30;;;1.83;;
35488;SDS011;21602;55.670;37.578;2023-12-29T00:58:39;2.28;;;1.45;;
35488;SDS011;21602;55.670;37.578;2023-12-29T01:01:06;3.72;;;2.08;;
35488;SDS011;21602;55.670;37.578;2023-12-29T01:03:37;2.47;;;1.73;;
35488;SDS011;21602;55.670;37.578;2023-12-29T01:06:03;2.60;;;1.75;;
35488;SDS011;21602;55.670;37.578;2023-12-29T01:08:29;2.78;;;1.95;;
35488;SDS011;21602;55.670;37.578;2023-12-29T01:10:56;2.25;;;1.80;;
35488;SDS011;21602;55.670;37.578;2023-12-29T01:13:23;2.72;;;2.10;;
35488;SDS011;21602;55.670;37.578;2023-12-29T01:15:50;3.20;;;1.95;;
35488;SDS011;21602;55.670;37.578;2023-12-29T01:18:16;2.88;;;1.90;;
35488;SDS011;21602;55.670;37.578;2023-12-29T01:20:42;3.08;;;1.88;;
35488;SDS011;21602;55.670;37.578;2023-12-29T01:23:08;3.10;;;2.00;;
35488;SDS011;21602;55.670;37.578;2023-12-29T01:25:34;2.83;;;1.90;;
35488;SDS011;21602;55.670;37.578;2023-12-29T01:28:00;2.50;;;1.67;;
35488;SDS011;21602;55.670;37.578;2023-12-29T01:30:26;2.25;;;1.80;;
35488;SDS011;21602;55.670;37.578;2023-12-29T01:32:52;2.25;;;2.05;;
35488;SDS011;21602;55.670;37.578;2023-12-29T01:35:18;2.30;;;1.90;;
35488;SDS011;21602;55.670;37.578;2023-12-29T01:37:45;2.38;;;1.83;;
35488;SDS011;21602;55.670;37.578;2023-12-29T01:40:11;5.90;;;2.10;;
35488;SDS011;21602;55.670;37.578;2023-12-29T01:42:37;3.15;;;2.20;;
35488;SDS011;21602;55.670;37.578;2023-12-29T01:45:03;4.60;;;2.50;;
35488;SDS011;21602;55.670;37.578;2023-12-29T01:47:31;2.28;;;1.85;;
35488;SDS011;21602;55.670;37.578;2023-12-29T01:49:58;6.55;;;1.75;;
35488;SDS011;21602;55.670;37.578;2023-12-29T01:52:24;2.42;;;1.90;;
35488;SDS011;21602;55.670;37.578;2023-12-29T01:54:50;2.08;;;1.67;;
35488;SDS011;21602;55.670;37.578;2023-12-29T01:57:18;2.03;;;1.55;;
35488;SDS011;21602;55.670;37.578;2023-12-29T01:59:46;2.47;;;1.87;;
35488;SDS011;21602;55.670;37.578;2023-12-29T02:02:15;2.13;;;1.80;;
35488;SDS011;21602;55.670;37.578;2023-12-29T02:04:42;2.15;;;1.70;;
35488;SDS011;21602;55.670;37.578;2023-12-29T02:07:08;2.83;;;1.58;;
35488;SDS011;21602;55.670;37.578;2023-12-29T02:09:35;2.33;;;1.70;;
35488;SDS011;21602;55.670;37.578;2023-12-29T02:12:02;3.72;;;1.83;;
35488;SDS011;21602;55.670;37.578;2023-12-29T02:14:29;3.43;;;1.43;;
35488;SDS011;21602;55.670;37.578;2023-12-29T02:19:46;2.50;;;1.60;;
35488;SDS011;21602;55.670;37.578;2023-12-29T02:22:15;2.50;;;1.67;;
35488;SDS011;21602;55.670;37.578;2023-12-29T02:24:46;2.57;;;1.70;;
35488;SDS011;21602;55.670;37.578;2023-12-29T02:30:10;2.10;;;1.43;;
35488;SDS011;21602;55.670;37.578;2023-12-29T02:32:42;4.22;;;1.48;;
35488;SDS011;21602;55.670;37.578;2023-12-29T02:35:11;1.83;;;1.50;;
35488;SDS011;21602;55.670;37.578;2023-12-29T02:37:39;3.55;;;1.73;;
35488;SDS011;21602;55.670;37.578;2023-12-29T02:40:07;2.78;;;1.67;;
35488;SDS011;21602;55.670;37.578;2023-12-29T02:42:34;1.65;;;1.40;;
35488;SDS011;21602;55.670;37.578;2023-12-29T02:45:00;1.83;;;1.60;;
35488;SDS011;21602;55.670;37.578;2023-12-29T02:47:31;1.90;;;1.70;;
35488;SDS011;21602;55.670;37.578;2023-12-29T02:49:57;3.50;;;1.38;;
35488;SDS011;21602;55.670;37.578;2023-12-29T02:52:24;3.58;;;1.42;;
35488;SDS011;21602;55.670;37.578;2023-12-29T02:54:50;1.40;;;1.30;;
35488;SDS011;21602;55.670;37.578;2023-12-29T02:57:17;1.85;;;1.60;;
35488;SDS011;21602;55.670;37.578;2023-12-29T02:59:43;1.70;;;1.30;;
35488;SDS011;21602;55.670;37.578;2023-12-29T03:02:09;1.88;;;1.38;;
35488;SDS011;21602;55.670;37.578;2023-12-29T03:04:37;2.92;;;1.70;;
35488;SDS011;21602;55.670;37.578;2023-12-29T03:07:03;3.28;;;1.50;;
35488;SDS011;21602;55.670;37.578;2023-12-29T03:09:29;2.08;;;1.45;;
35488;SDS011;21602;55.670;37.578;2023-12-29T03:11:55;3.70;;;1.50;;
35488;SDS011;21602;55.670;37.578;2023-12-29T03:14:21;2.55;;;1.45;;
35488;SDS011;21602;55.670;37.578;2023-12-29T03:16:47;1.95;;;1.45;;
35488;SDS011;21602;55.670;37.578;2023-12-29T03:19:13;2.60;;;1.85;;
35488;SDS011;21602;55.670;37.578;2023-12-29T03:21:39;2.50;;;1.60;;
35488;SDS011;21602;55.670;37.578;2023-12-29T03:24:05;2.33;;;1.33;;
35488;SDS011;21602;55.670;37.578;2023-12-29T03:26:31;3.10;;;1.95;;
35488;SDS011;21602;55.670;37.578;2023-12-29T03:28:57;2.65;;;1.63;;
35488;SDS011;21602;55.670;37.578;2023-12-29T03:31:24;2.38;;;1.58;;
35488;SDS011;21602;55.670;37.578;2023-12-29T03:33:50;1.98;;;1.50;;
35488;SDS011;21602;55.670;37.578;2023-12-29T03:36:16;3.67;;;1.50;;
35488;SDS011;21602;55.670;37.578;2023-12-29T03:38:42;1.98;;;1.42;;
35488;SDS011;21602;55.670;37.578;2023-12-29T03:41:10;3.60;;;2.10;;
35488;SDS011;21602;55.670;37.578;2023-12-29T03:43:36;2.07;;;1.40;;
35488;SDS011;21602;55.670;37.578;2023-12-29T03:46:02;3.55;;;2.03;;
35488;SDS011;21602;55.670;37.578;2023-12-29T03:48:28;3.15;;;1.80;;
35488;SDS011;21602;55.670;37.578;2023-12-29T03:50:55;3.30;;;1.60;;
35488;SDS011;21602;55.670;37.578;2023-12-29T03:53:22;4.55;;;1.80;;
35488;SDS011;21602;55.670;37.578;2023-12-29T03:55:48;4.55;;;1.80;;
35488;SDS011;21602;55.670;37.578;2023-12-29T03:58:15;3.92;;;2.10;;
35488;SDS011;21602;55.670;37.578;2023-12-29T04:00:41;2.53;;;1.63;;
35488;SDS011;21602;55.670;37.578;2023-12-29T04:03:09;3.15;;;1.92;;
35488;SDS011;21602;55.670;37.578;2023-12-29T04:05:35;2.58;;;1.73;;
35488;SDS011;21602;55.670;37.578;2023-12-29T04:08:01;3.20;;;1.88;;
35488;SDS011;21602;55.670;37.578;2023-12-29T04:10:27;3.20;;;1.83;;
35488;SDS011;21602;55.670;37.578;2023-12-29T04:12:53;3.65;;;1.63;;
35488;SDS011;21602;55.670;37.578;2023-12-29T04:15:19;2.65;;;1.88;;
35488;SDS011;21602;55.670;37.578;2023-12-29T04:17:45;3.40;;;2.17;;
35488;SDS011;21602;55.670;37.578;2023-12-29T04:20:11;2.88;;;1.80;;
35488;SDS011;21602;55.670;37.578;2023-12-29T04:22:39;3.47;;;2.10;;
35488;SDS011;21602;55.670;37.578;2023-12-29T04:25:05;3.67;;;2.05;;
35488;SDS011;21602;55.670;37.578;2023-12-29T04:27:31;2.93;;;2.07;;
35488;SDS011;21602;55.670;37.578;2023-12-29T04:29:58;4.78;;;2.15;;
35488;SDS011;21602;55.670;37.578;2023-12-29T04:32:24;4.53;;;2.13;;
35488;SDS011;21602;55.670;37.578;2023-12-29T04:34:51;4.18;;;2.03;;
35488;SDS011;21602;55.670;37.578;2023-12-29T04:37:17;5.82;;;2.42;;
35488;SDS011;21602;55.670;37.578;2023-12-29T04:39:43;5.90;;;2.55;;
35488;SDS011;21602;55.670;37.578;2023-12-29T04:42:09;7.22;;;2.58;;
35488;SDS011;21602;55.670;37.578;2023-12-29T04:44:35;5.82;;;2.58;;
35488;SDS011;21602;55.670;37.578;2023-12-29T04:47:01;3.05;;;2.08;;
35488;SDS011;21602;55.670;37.578;2023-12-29T04:49:28;2.97;;;2.30;;
35488;SDS011;21602;55.670;37.578;2023-12-29T04:51:54;7.30;;;2.75;;
35488;SDS011;21602;55.670;37.578;2023-12-29T04:54:20;4.63;;;2.70;;
35488;SDS011;21602;55.670;37.578;2023-12-29T04:56:46;5.72;;;1.95;;
35488;SDS011;21602;55.670;37.578;2023-12-29T04:59:12;6.57;;;2.50;;
35488;SDS011;21602;55.670;37.578;2023-12-29T05:01:39;8.07;;;2.63;;
35488;SDS011;21602;55.670;37.578;2023-12-29T05:04:05;4.15;;;2.47;;
35488;SDS011;21602;55.670;37.578;2023-12-29T05:06:31;5.18;;;2.50;;
35488;SDS011;21602;55.670;37.578;2023-12-29T05:08:57;3.58;;;2.65;;
35488;SDS011;21602;55.670;37.578;2023-12-29T05:11:23;5.10;;;2.50;;
35488;SDS011;21602;55.670;37.578;2023-12-29T05:13:53;5.95;;;2.90;;
35488;SDS011;21602;55.670;37.578;2023-12-29T05:16:19;5.93;;;3.20;;
35488;SDS011;21602;55.670;37.578;2023-12-29T05:18:46;5.32;;;3.40;;
35488;SDS011;21602;55.670;37.578;2023-12-29T05:21:16;4.93;;;3.22;;
35488;SDS011;21602;55.670;37.578;2023-12-29T05:23:45;7.15;;;2.85;;
35488;SDS011;21602;55.670;37.578;2023-12-29T05:26:13;6.40;;;3.58;;
35488;SDS011;21602;55.670;37.578;2023-12-29T05:28:42;3.65;;;2.50;;
35488;SDS011;21602;55.670;37.578;2023-12-29T05:31:08;5.72;;;2.92;;
35488;SDS011;21602;55.670;37.578;2023-12-29T05:33:35;5.15;;;3.28;;
35488;SDS011;21602;55.670;37.578;2023-12-29T05:36:08;3.90;;;2.72;;
35488;SDS011;21602;55.670;37.578;2023-12-29T05:38:36;4.68;;;3.47;;
35488;SDS011;21602;55.670;37.578;2023-12-29T05:41:06;4.53;;;2.85;;
35488;SDS011;21602;55.670;37.578;2023-12-29T05:43:32;8.10;;;4.00;;
35488;SDS011;21602;55.670;37.578;2023-12-29T05:45:59;5.28;;;3.22;;
35488;SDS011;21602;55.670;37.578;2023-12-29T05:48:26;5.18;;;3.13;;
35488;SDS011;21602;55.670;37.578;2023-12-29T05:50:52;6.72;;;3.08;;
35488;SDS011;21602;55.670;37.578;2023-12-29T05:53:19;6.10;;;3.37;;
35488;SDS011;21602;55.670;37.578;2023-12-29T05:55:45;9.30;;;3.53;;
35488;SDS011;21602;55.670;37.578;2023-12-29T05:58:11;5.95;;;2.95;;
35488;SDS011;21602;55.670;37.578;2023-12-29T06:00:38;7.03;;;2.95;;
35488;SDS011;21602;55.670;37.578;2023-12-29T06:03:07;5.85;;;2.90;;
35488;SDS011;21602;55.670;37.578;2023-12-29T06:05:34;6.00;;;3.20;;
35488;SDS011;21602;55.670;37.578;2023-12-29T06:08:00;4.47;;;3.08;;
35488;SDS011;21602;55.670;37.578;2023-12-29T06:10:27;6.70;;;3.45;;
35488;SDS011;21602;55.670;37.578;2023-12-29T06:12:53;6.55;;;3.00;;
35488;SDS011;21602;55.670;37.578;2023-12-29T06:15:22;4.97;;;3.17;;
35488;SDS011;21602;55.670;37.578;2023-12-29T06:17:53;5.30;;;3.13;;
35488;SDS011;21602;55.670;37.578;2023-12-29T06:20:22;5.32;;;3.53;;
35488;SDS011;21602;55.670;37.578;2023-12-29T06:22:49;6.15;;;3.95;;
35488;SDS011;21602;55.670;37.578;2023-12-29T06:25:15;4.82;;;2.95;;
35488;SDS011;21602;55.670;37.578;2023-12-29T06:27:41;5.72;;;3.00;;
35488;SDS011;21602;55.670;37.578;2023-12-29T06:30:11;5.03;;;3.65;;
35488;SDS011;21602;55.670;37.578;2023-12-29T06:32:37;5.22;;;3.00;;
35488;SDS011;21602;55.670;37.578;2023-12-29T06:35:07;6.88;;;3.58;;
35488;SDS011;21602;55.670;37.578;2023-12-29T06:37:37;6.57;;;3.17;;
35488;SDS011;21602;55.670;37.578;2023-12-29T06:40:05;4.32;;;3.00;;
35488;SDS011;21602;55.670;37.578;2023-12-29T06:42:32;5.53;;;3.80;;
35488;SDS011;21602;55.670;37.578;2023-12-29T06:45:00;6.53;;;3.33;;
35488;SDS011;21602;55.670;37.578;2023-12-29T06:47:30;6.60;;;3.85;;
35488;SDS011;21602;55.670;37.578;2023-12-29T06:49:57;5.93;;;3.95;;
35488;SDS011;21602;55.670;37.578;2023-12-29T06:52:23;6.05;;;4.07;;
35488;SDS011;21602;55.670;37.578;2023-12-29T06:54:49;8.57;;;4.00;;
35488;SDS011;21602;55.670;37.578;2023-12-29T06:57:16;5.90;;;4.10;;
35488;SDS011;21602;55.670;37.578;2023-12-29T06:59:42;4.50;;;3.40;;
35488;SDS011;21602;55.670;37.578;2023-12-29T07:02:08;7.65;;;3.53;;
35488;SDS011;21602;55.670;37.578;2023-12-29T07:04:35;6.35;;;4.07;;
35488;SDS011;21602;55.670;37.578;2023-12-29T07:07:01;6.20;;;3.80;;
35488;SDS011;21602;55.670;37.578;2023-12-29T07:09:27;8.77;;;3.47;;
35488;SDS011;21602;55.670;37.578;2023-12-29T07:11:53;7.65;;;3.92;;
35488;SDS011;21602;55.670;37.578;2023-12-29T07:14:21;7.30;;;3.60;;
35488;SDS011;21602;55.670;37.578;2023-12-29T07:16:47;7.80;;;3.60;;
35488;SDS011;21602;55.670;37.578;2023-12-29T07:19:13;6.93;;;3.97;;
35488;SDS011;21602;55.670;37.578;2023-12-29T07:21:39;5.03;;;3.53;;
35488;SDS011;21602;55.670;37.578;2023-12-29T07:24:06;5.28;;;3.28;;
35488;SDS011;21602;55.670;37.578;2023-12-29T07:26:35;6.13;;;3.88;;
35488;SDS011;21602;55.670;37.578;2023-12-29T07:29:06;8.10;;;3.90;;
35488;SDS011;21602;55.670;37.578;2023-12-29T07:31:32;7.53;;;3.20;;
35488;SDS011;21602;55.670;37.578;2023-12-29T07:33:59;7.00;;;4.22;;
35488;SDS011;21602;55.670;37.578;2023-12-29T07:36:25;4.25;;;3.38;;
35488;SDS011;21602;55.670;37.578;2023-12-29T07:38:51;5.93;;;3.42;;
35488;SDS011;21602;55.670;37.578;2023-12-29T07:41:17;7.22;;;3.67;;
35488;SDS011;21602;55.670;37.578;2023-12-29T07:43:44;5.63;;;3.55;;
35488;SDS011;21602;55.670;37.578;2023-12-29T07:46:10;7.00;;;3.20;;
35488;SDS011;21602;55.670;37.578;2023-12-29T07:48:36;6.97;;;3.67;;
35488;SDS011;21602;55.670;37.578;2023-12-29T07:53:31;7.18;;;3.90;;
35488;SDS011;21602;55.670;37.578;2023-12-29T07:56:01;5.75;;;3.20;;
35488;SDS011;21602;55.670;37.578;2023-12-29T07:58:33;5.57;;;3.72;;
35488;SDS011;21602;55.670;37.578;2023-12-29T08:01:00;4.72;;;3.15;;
35488;SDS011;21602;55.670;37.578;2023-12-29T08:03:26;5.13;;;3.00;;
35488;SDS011;21602;55.670;37.578;2023-12-29T08:05:52;6.13;;;3.05;;
35488;SDS011;21602;55.670;37.578;2023-12-29T08:08:18;6.45;;;3.80;;
35488;SDS011;21602;55.670;37.578;2023-12-29T08:10:47;5.63;;;3.58;;
35488;SDS011;21602;55.670;37.578;2023-12-29T08:13:13;6.30;;;3.45;;
35488;SDS011;21602;55.670;37.578;2023-12-29T08:15:39;4.95;;;3.22;;
35488;SDS011;21602;55.670;37.578;2023-12-29T08:18:08;4.43;;;3.17;;
35488;SDS011;21602;55.670;37.578;2023-12-29T08:20:36;4.80;;;3.40;;
35488;SDS011;21602;55.670;37.578;2023-12-29T08:23:02;5.65;;;3.88;;
35488;SDS011;21602;55.670;37.578;2023-12-29T08:25:28;10.90;;;3.78;;
35488;SDS011;21602;55.670;37.578;2023-12-29T08:27:57;5.18;;;3.47;;
35488;SDS011;21602;55.670;37.578;2023-12-29T08:30:24;6.03;;;3.65;;
35488;SDS011;21602;55.670;37.578;2023-12-29T08:32:53;6.45;;;3.50;;
35488;SDS011;21602;55.670;37.578;2023-12-29T08:35:19;6.03;;;3.30;;
35488;SDS011;21602;55.670;37.578;2023-12-29T08:37:45;5.45;;;3.17;;
35488;SDS011;21602;55.670;37.578;2023-12-29T08:40:15;6.97;;;4.00;;
35488;SDS011;21602;55.670;37.578;2023-12-29T08:42:41;11.20;;;3.97;;
35488;SDS011;21602;55.670;37.578;2023-12-29T08:45:08;12.57;;;4.60;;
35488;SDS011;21602;55.670;37.578;2023-12-29T08:47:37;6.18;;;3.80;;
35488;SDS011;21602;55.670;37.578;2023-12-29T08:50:03;8.23;;;4.13;;
35488;SDS011;21602;55.670;37.578;2023-12-29T08:52:30;6.45;;;4.00;;
35488;SDS011;21602;55.670;37.578;2023-12-29T08:54:58;5.97;;;3.78;;
35488;SDS011;21602;55.670;37.578;2023-12-29T08:57:24;7.45;;;4.50;;
35488;SDS011;21602;55.670;37.578;2023-12-29T08:59:51;6.10;;;3.97;;
35488;SDS011;21602;55.670;37.578;2023-12-29T09:02:17;9.20;;;4.07;;
35488;SDS011;21602;55.670;37.578;2023-12-29T09:04:43;6.53;;;4.70;;
35488;SDS011;21602;55.670;37.578;2023-12-29T09:07:09;8.02;;;4.03;;
35488;SDS011;21602;55.670;37.578;2023-12-29T09:09:38;5.80;;;4.35;;
35488;SDS011;21602;55.670;37.578;2023-12-29T09:12:05;8.27;;;4.85;;
35488;SDS011;21602;55.670;37.578;2023-12-29T09:14:31;6.40;;;4.13;;
35488;SDS011;21602;55.670;37.578;2023-12-29T09:17:00;6.63;;;4.45;;
35488;SDS011;21602;55.670;37.578;2023-12-29T09:19:27;8.02;;;4.10;;
35488;SDS011;21602;55.670;37.578;2023-12-29T09:21:53;7.07;;;4.25;;
35488;SDS011;21602;55.670;37.578;2023-12-29T09:24:19;8.25;;;5.22;;
35488;SDS011;21602;55.670;37.578;2023-12-29T09:26:45;6.72;;;3.95;;
35488;SDS011;21602;55.670;37.578;2023-12-29T09:29:12;9.27;;;4.68;;
35488;SDS011;21602;55.670;37.578;2023-12-29T09:31:38;6.10;;;4.25;;
35488;SDS011;21602;55.670;37.578;2023-12-29T09:34:04;11.52;;;5.03;;
35488;SDS011;21602;55.670;37.578;2023-12-29T09:36:30;5.85;;;4.50;;
35488;SDS011;21602;55.670;37.578;2023-12-29T09:38:56;7.57;;;5.10;;
35488;SDS011;21602;55.670;37.578;2023-12-29T09:41:23;8.88;;;4.43;;
35488;SDS011;21602;55.670;37.578;2023-12-29T09:43:50;8.55;;;4.72;;
35488;SDS011;21602;55.670;37.578;2023-12-29T09:46:17;9.77;;;4.93;;
35488;SDS011;21602;55.670;37.578;2023-12-29T09:48:47;8.63;;;5.35;;
35488;SDS011;21602;55.670;37.578;2023-12-29T09:51:14;10.02;;;4.93;;
35488;SDS011;21602;55.670;37.578;2023-12-29T09:53:41;8.70;;;4.90;;
35488;SDS011;21602;55.670;37.578;2023-12-29T09:56:10;7.07;;;5.18;;
35488;SDS011;21602;55.670;37.578;2023-12-29T09:58:39;10.13;;;6.25;;
35488;SDS011;21602;55.670;37.578;2023-12-29T10:01:07;16.65;;;6.60;;
35488;SDS011;21602;55.670;37.578;2023-12-29T10:03:33;8.85;;;5.05;;
35488;SDS011;21602;55.670;37.578;2023-12-29T10:06:03;8.77;;;5.03;;
35488;SDS011;21602;55.670;37.578;2023-12-29T10:08:36;8.10;;;5.25;;
35488;SDS011;21602;55.670;37.578;2023-12-29T10:11:06;8.60;;;5.03;;
35488;SDS011;21602;55.670;37.578;2023-12-29T10:13:33;7.32;;;3.83;;
35488;SDS011;21602;55.670;37.578;2023-12-29T10:16:05;10.75;;;4.07;;
35488;SDS011;21602;55.670;37.578;2023-12-29T10:18:48;8.32;;;4.72;;
35488;SDS011;21602;55.670;37.578;2023-12-29T10:21:33;7.18;;;4.35;;
35488;SDS011;21602;55.670;37.578;2023-12-29T10:24:16;8.07;;;4.53;;
35488;SDS011;21602;55.670;37.578;2023-12-29T10:26:43;10.40;;;4.95;;
35488;SDS011;21602;55.670;37.578;2023-12-29T10:29:11;8.95;;;4.63;;
35488;SDS011;21602;55.670;37.578;2023-12-29T10:31:44;9.98;;;5.25;;
35488;SDS011;21602;55.670;37.578;2023-12-29T10:34:20;9.68;;;4.45;;
35488;SDS011;21602;55.670;37.578;2023-12-29T10:36:57;8.20;;;4.22;;
35488;SDS011;21602;55.670;37.578;2023-12-29T10:39:27;7.97;;;4.60;;
35488;SDS011;21602;55.670;37.578;2023-12-29T10:42:04;7.47;;;3.53;;
35488;SDS011;21602;55.670;37.578;2023-12-29T10:44:35;7.18;;;3.95;;
35488;SDS011;21602;55.670;37.578;2023-12-29T10:47:11;6.37;;;3.97;;
35488;SDS011;21602;55.670;37.578;2023-12-29T10:49:39;5.43;;;3.95;;
35488;SDS011;21602;55.670;37.578;2023-12-29T10:52:12;7.40;;;4.17;;
35488;SDS011;21602;55.670;37.578;2023-12-29T10:54:43;5.30;;;3.35;;
35488;SDS011;21602;55.670;37.578;2023-12-29T10:57:11;8.63;;;4.57;;
35488;SDS011;21602;55.670;37.578;2023-12-29T10:59:38;4.50;;;3.60;;
35488;SDS011;21602;55.670;37.578;2023-12-29T11:02:05;5.20;;;3.80;;
35488;SDS011;21602;55.670;37.578;2023-12-29T11:04:34;7.93;;;4.28;;
35488;SDS011;21602;55.670;37.578;2023-12-29T11:07:00;6.13;;;4.00;;
35488;SDS011;21602;55.670;37.578;2023-12-29T11:09:27;12.00;;;4.93;;
35488;SDS011;21602;55.670;37.578;2023-12-29T11:11:59;6.13;;;4.30;;
35488;SDS011;21602;55.670;37.578;2023-12-29T11:14:29;9.75;;;4.90;;
35488;SDS011;21602;55.670;37.578;2023-12-29T11:16:56;7.47;;;3.88;;
35488;SDS011;21602;55.670;37.578;2023-12-29T11:19:27;7.00;;;4.10;;
35488;SDS011;21602;55.670;37.578;2023-12-29T11:21:57;6.30;;;4.30;;
35488;SDS011;21602;55.670;37.578;2023-12-29T11:24:26;7.55;;;4.07;;
35488;SDS011;21602;55.670;37.578;2023-12-29T11:26:52;9.02;;;4.88;;
35488;SDS011;21602;55.670;37.578;2023-12-29T11:29:18;6.75;;;4.20;;
35488;SDS011;21602;55.670;37.578;2023-12-29T11:31:45;7.13;;;3.70;;
35488;SDS011;21602;55.670;37.578;2023-12-29T11:34:23;9.25;;;4.40;;
35488;SDS011;21602;55.670;37.578;2023-12-29T11:36:57;10.57;;;4.88;;
35488;SDS011;21602;55.670;37.578;2023-12-29T11:39:38;7.68;;;4.78;;
35488;SDS011;21602;55.670;37.578;2023-12-29T11:42:26;7.43;;;4.05;;
35488;SDS011;21602;55.670;37.578;2023-12-29T11:44:56;4.93;;;3.53;;
35488;SDS011;21602;55.670;37.578;2023-12-29T11:47:44;5.72;;;3.95;;
35488;SDS011;21602;55.670;37.578;2023-12-29T11:50:10;8.90;;;4.90;;
35488;SDS011;21602;55.670;37.578;2023-12-29T11:52:37;10.18;;;5.50;;
35488;SDS011;21602;55.670;37.578;2023-12-29T11:55:13;7.68;;;5.15;;
35488;SDS011;21602;55.670;37.578;2023-12-29T11:57:46;8.27;;;5.32;;
35488;SDS011;21602;55.670;37.578;2023-12-29T12:00:12;8.63;;;4.80;;
35488;SDS011;21602;55.670;37.578;2023-12-29T12:02:38;5.38;;;4.07;;
35488;SDS011;21602;55.670;37.578;2023-12-29T12:05:05;8.20;;;4.97;;
35488;SDS011;21602;55.670;37.578;2023-12-29T12:12:46;8.45;;;4.60;;
35488;SDS011;21602;55.670;37.578;2023-12-29T12:17:59;6.80;;;4.72;;
35488;SDS011;21602;55.670;37.578;2023-12-29T12:20:29;6.45;;;4.30;;
35488;SDS011;21602;55.670;37.578;2023-12-29T12:22:59;8.15;;;4.75;;
35488;SDS011;21602;55.670;37.578;2023-12-29T12:25:27;7.38;;;4.68;;
35488;SDS011;21602;55.670;37.578;2023-12-29T12:28:00;7.38;;;4.32;;
35488;SDS011;21602;55.670;37.578;2023-12-29T12:30:32;5.88;;;3.85;;
35488;SDS011;21602;55.670;37.578;2023-12-29T12:33:03;7.22;;;4.25;;
35488;SDS011;21602;55.670;37.578;2023-12-29T12:35:30;7.78;;;4.78;;
35488;SDS011;21602;55.670;37.578;2023-12-29T12:38:09;8.80;;;4.38;;
35488;SDS011;21602;55.670;37.578;2023-12-29T12:40:39;9.60;;;4.90;;
35488;SDS011;21602;55.670;37.578;2023-12-29T12:43:06;6.28;;;4.40;;
35488;SDS011;21602;55.670;37.578;2023-12-29T12:45:48;7.68;;;4.68;;
35488;SDS011;21602;55.670;37.578;2023-12-29T12:48:34;6.65;;;4.80;;
35488;SDS011;21602;55.670;37.578;2023-12-29T12:51:05;5.35;;;4.28;;
35488;SDS011;21602;55.670;37.578;2023-12-29T12:53:32;8.07;;;4.78;;
35488;SDS011;21602;55.670;37.578;2023-12-29T12:55:58;8.77;;;5.38;;
35488;SDS011;21602;55.670;37.578;2023-12-29T12:58:25;8.55;;;5.22;;
35488;SDS011;21602;55.670;37.578;2023-12-29T13:00:54;8.63;;;4.75;;
35488;SDS011;21602;55.670;37.578;2023-12-29T13:03:26;8.95;;;5.03;;
35488;SDS011;21602;55.670;37.578;2023-12-29T13:05:53;7.75;;;5.00;;
35488;SDS011;21602;55.670;37.578;2023-12-29T13:08:19;10.05;;;5.10;;
35488;SDS011;21602;55.670;37.578;2023-12-29T13:10:46;7.72;;;4.07;;
35488;SDS011;21602;55.670;37.578;2023-12-29T13:13:13;8.75;;;5.63;;
35488;SDS011;21602;55.670;37.578;2023-12-29T13:15:47;7.28;;;4.72;;
35488;SDS011;21602;55.670;37.578;2023-12-29T13:18:28;9.65;;;5.10;;
35488;SDS011;21602;55.670;37.578;2023-12-29T13:20:57;8.35;;;4.68;;
35488;SDS011;21602;55.670;37.578;2023-12-29T13:23:27;8.80;;;5.78;;
35488;SDS011;21602;55.670;37.578;2023-12-29T13:25:54;11.23;;;5.78;;
35488;SDS011;21602;55.670;37.578;2023-12-29T13:28:23;10.00;;;5.65;;
35488;SDS011;21602;55.670;37.578;2023-12-29T13:30:49;8.32;;;4.97;;
35488;SDS011;21602;55.670;37.578;2023-12-29T13:33:19;7.63;;;4.78;;
35488;SDS011;21602;55.670;37.578;2023-12-29T13:35:57;8.90;;;5.55;;
35488;SDS011;21602;55.670;37.578;2023-12-29T13:38:50;7.55;;;4.97;;
35488;SDS011;21602;55.670;37.578;2023-12-29T13:41:21;7.82;;;6.32;;
35488;SDS011;21602;55.670;37.578;2023-12-29T13:43:50;8.02;;;5.30;;
35488;SDS011;21602;55.670;37.578;2023-12-29T13:46:18;9.77;;;5.47;;
35488;SDS011;21602;55.670;37.578;2023-12-29T13:48:45;8.80;;;6.03;;
35488;SDS011;21602;55.670;37.578;2023-12-29T13:51:16;11.35;;;5.70;;
35488;SDS011;21602;55.670;37.578;2023-12-29T13:53:42;13.13;;;5.95;;
35488;SDS011;21602;55.670;37.578;2023-12-29T13:56:09;9.77;;;5.85;;
35488;SDS011;21602;55.670;37.578;2023-12-29T13:58:36;12.05;;;7.50;;
35488;SDS011;21602;55.670;37.578;2023-12-29T14:01:03;8.57;;;6.45;;
35488;SDS011;21602;55.670;37.578;2023-12-29T14:03:46;14.57;;;6.28;;
35488;SDS011;21602;55.670;37.578;2023-12-29T14:06:20;11.35;;;6.30;;
35488;SDS011;21602;55.670;37.578;2023-12-29T14:08:53;11.15;;;5.82;;
35488;SDS011;21602;55.670;37.578;2023-12-29T14:11:19;11.20;;;6.65;;
35488;SDS011;21602;55.670;37.578;2023-12-29T14:13:46;12.00;;;6.43;;
35488;SDS011;21602;55.670;37.578;2023-12-29T14:16:15;8.00;;;5.65;;
35488;SDS011;21602;55.670;37.578;2023-12-29T14:21:22;10.65;;;6.88;;
35488;SDS011;21602;55.670;37.578;2023-12-29T14:26:32;9.77;;;6.15;;
35488;SDS011;21602;55.670;37.578;2023-12-29T14:29:02;13.70;;;7.60;;
35488;SDS011;21602;55.670;37.578;2023-12-29T14:31:35;13.13;;;7.82;;
35488;SDS011;21602;55.670;37.578;2023-12-29T14:34:03;14.27;;;7.65;;
35488;SDS011;21602;55.670;37.578;2023-12-29T14:36:32;14.88;;;8.07;;
35488;SDS011;21602;55.670;37.578;2023-12-29T14:38:59;10.65;;;7.38;;
35488;SDS011;21602;55.670;37.578;2023-12-29T14:41:25;12.60;;;7.65;;
35488;SDS011;21602;55.670;37.578;2023-12-29T14:43:52;11.50;;;7.10;;
35488;SDS011;21602;55.670;37.578;2023-12-29T14:46:19;16.17;;;8.93;;
35488;SDS011;21602;55.670;37.578;2023-12-29T14:48:45;12.35;;;7.70;;
35488;SDS011;21602;55.670;37.578;2023-12-29T14:51:12;15.70;;;8.52;;
35488;SDS011;21602;55.670;37.578;2023-12-29T14:53:39;15.57;;;8.68;;
35488;SDS011;21602;55.670;37.578;2023-12-29T14:56:05;14.20;;;9.70;;
35488;SDS011;21602;55.670;37.578;2023-12-29T14:58:32;12.82;;;7.20;;
35488;SDS011;21602;55.670;37.578;2023-12-29T15:00:58;13.35;;;8.48;;